Freeport, MN (56331)

5:59 PM CDT on May 04, 2015 (GMT -0500)
KMNGREYE2 | | Change Station
CLOSE
Current Station
Personal Weather Station
Location: Grey Eagle, MN
Elevation: 1214 ft
Nearby Weather Stations

Elev 1214 ft 45.83 °N, 94.75 °W | Updated 1 minute ago

Clear
Clear
67.3 °F
Feels Like 67.3 °F
N
4.2
Wind Variable Wind from ENE

Today
High -- | Low -- °F
--% Chance of Precip.
Yesterday
High -- | Low -- °F
Precip. -- in
6:02 AM 8:29 PM
Full, 99% visible
Pressure 30.18 in
Visibility 10.0 miles
Clouds Clear
Dew Point 32 °F
Humidity 27%
Rainfall 0.00 in
Snow Depth Not available.
UV 2 out of 12
Pollen 11.00 out of 12
Air Quality Not available.
Flu Activity Sporadic
METAR KD39 042255Z AUTO 08003KT 10SM CLR 19/00 A3018 RMK AO2 T01931002

More Conditions Fewer Conditions

Pressure 30.18 in
Visibility 10.0 miles
Clouds Clear
Dew Point 32 °F
Humidity 27%
Rainfall 0.00 in
Snow Depth Not available.
UV 2 out of 12
Pollen 11.00 out of 12
Air Quality Not available.
Flu Activity Sporadic
METAR KD39 042255Z AUTO 08003KT 10SM CLR 19/00 A3018 RMK AO2 T01931002

More Conditions Fewer Conditions

Nepal has a long way to go to dig out and rebuild from a devastating earthquake. We have teamed up with several charities and organizations to make contributing to the relief effort as easy as possible.
How you can help: Portlight Strategies | Red Cross

10-Day Weather Forecast

Almanac

Astronomy

May. 04, 2015 Rise Set
Actual Time
Civil Twilight
Nautical Twilight
Astronomical Twilight
Moon
Length of Visible Light
Length of Day
Tomorrow will be .
, % of the Moon is Illuminated

Today's Extremes

State Highs State Lows

Community

WunderPhotos

Upload Photos

1,818,720 photos uploaded!

WunderBlogs® & News

Nearby

Air Quality

  Air Quality AQ Index Pollutant
Not available.

Snow Depth

Station Depth Elevation

Earthquake Activity

City Distance Mag. Time & Date
Minimum magnitude displayed is 2.5.

Coastal Water Temperatures

Place Temperature

Stations

Nearby Weather Stations

Station Location Temp. Windchill Dew Point Humidity Wind Precip. Elev Updated Type